sensor_id;sensor_type;location;lat;lon;timestamp;P1;durP1;ratioP1;P2;durP2;ratioP2
40729;SDS011;26418;50.070;8.436;2022-07-23T00:01:15;10.20;;;6.75;;
40729;SDS011;26418;50.070;8.436;2022-07-23T00:03:40;9.40;;;6.10;;
40729;SDS011;26418;50.070;8.436;2022-07-23T00:06:06;9.55;;;6.70;;
40729;SDS011;26418;50.070;8.436;2022-07-23T00:08:31;8.52;;;6.80;;
40729;SDS011;26418;50.070;8.436;2022-07-23T00:10:57;10.25;;;7.18;;
40729;SDS011;26418;50.070;8.436;2022-07-23T00:13:22;8.90;;;6.47;;
40729;SDS011;26418;50.070;8.436;2022-07-23T00:15:48;7.88;;;6.22;;
40729;SDS011;26418;50.070;8.436;2022-07-23T00:18:13;7.90;;;6.15;;
40729;SDS011;26418;50.070;8.436;2022-07-23T00:20:39;9.57;;;7.03;;
40729;SDS011;26418;50.070;8.436;2022-07-23T00:23:04;13.80;;;6.60;;
40729;SDS011;26418;50.070;8.436;2022-07-23T00:25:29;11.40;;;6.15;;
40729;SDS011;26418;50.070;8.436;2022-07-23T00:27:55;12.52;;;6.97;;
40729;SDS011;26418;50.070;8.436;2022-07-23T00:30:21;12.70;;;6.85;;
40729;SDS011;26418;50.070;8.436;2022-07-23T00:32:53;9.73;;;7.50;;
40729;SDS011;26418;50.070;8.436;2022-07-23T00:35:25;11.38;;;6.93;;
40729;SDS011;26418;50.070;8.436;2022-07-23T00:37:52;8.32;;;6.60;;
40729;SDS011;26418;50.070;8.436;2022-07-23T00:40:17;8.85;;;5.88;;
40729;SDS011;26418;50.070;8.436;2022-07-23T00:42:43;9.75;;;6.97;;
40729;SDS011;26418;50.070;8.436;2022-07-23T00:45:09;8.57;;;6.90;;
40729;SDS011;26418;50.070;8.436;2022-07-23T00:47:35;10.38;;;6.85;;
40729;SDS011;26418;50.070;8.436;2022-07-23T00:50:01;10.18;;;6.75;;
40729;SDS011;26418;50.070;8.436;2022-07-23T00:52:28;7.35;;;6.57;;
40729;SDS011;26418;50.070;8.436;2022-07-23T00:54:55;7.00;;;6.25;;
40729;SDS011;26418;50.070;8.436;2022-07-23T00:57:20;10.23;;;6.82;;
40729;SDS011;26418;50.070;8.436;2022-07-23T00:59:46;9.10;;;6.72;;
40729;SDS011;26418;50.070;8.436;2022-07-23T01:02:11;12.68;;;7.38;;
40729;SDS011;26418;50.070;8.436;2022-07-23T01:04:37;9.95;;;6.95;;
40729;SDS011;26418;50.070;8.436;2022-07-23T01:07:02;10.68;;;6.57;;
40729;SDS011;26418;50.070;8.436;2022-07-23T01:09:28;10.30;;;6.45;;
40729;SDS011;26418;50.070;8.436;2022-07-23T01:11:54;8.02;;;5.75;;
40729;SDS011;26418;50.070;8.436;2022-07-23T01:14:21;8.60;;;6.75;;
40729;SDS011;26418;50.070;8.436;2022-07-23T01:16:47;10.98;;;6.45;;
40729;SDS011;26418;50.070;8.436;2022-07-23T01:19:13;8.60;;;5.78;;
40729;SDS011;26418;50.070;8.436;2022-07-23T01:21:44;8.13;;;6.32;;
40729;SDS011;26418;50.070;8.436;2022-07-23T01:24:12;7.18;;;6.30;;
40729;SDS011;26418;50.070;8.436;2022-07-23T01:26:39;8.05;;;6.22;;
40729;SDS011;26418;50.070;8.436;2022-07-23T01:29:06;8.48;;;6.72;;
40729;SDS011;26418;50.070;8.436;2022-07-23T01:31:32;10.90;;;6.97;;
40729;SDS011;26418;50.070;8.436;2022-07-23T01:33:57;10.35;;;7.53;;
40729;SDS011;26418;50.070;8.436;2022-07-23T01:36:23;13.32;;;7.47;;
40729;SDS011;26418;50.070;8.436;2022-07-23T01:38:48;11.38;;;6.80;;
40729;SDS011;26418;50.070;8.436;2022-07-23T01:41:14;8.65;;;6.10;;
40729;SDS011;26418;50.070;8.436;2022-07-23T01:43:40;7.95;;;6.47;;
40729;SDS011;26418;50.070;8.436;2022-07-23T01:46:06;10.27;;;7.90;;
40729;SDS011;26418;50.070;8.436;2022-07-23T01:48:31;8.77;;;6.88;;
40729;SDS011;26418;50.070;8.436;2022-07-23T01:50:56;8.32;;;6.65;;
40729;SDS011;26418;50.070;8.436;2022-07-23T01:53:22;8.43;;;6.20;;
40729;SDS011;26418;50.070;8.436;2022-07-23T01:55:47;7.80;;;6.07;;
40729;SDS011;26418;50.070;8.436;2022-07-23T01:58:13;11.85;;;7.28;;
40729;SDS011;26418;50.070;8.436;2022-07-23T02:00:39;8.25;;;6.22;;
40729;SDS011;26418;50.070;8.436;2022-07-23T02:03:04;12.85;;;6.00;;
40729;SDS011;26418;50.070;8.436;2022-07-23T02:05:30;12.90;;;7.88;;
40729;SDS011;26418;50.070;8.436;2022-07-23T02:07:57;8.40;;;6.93;;
40729;SDS011;26418;50.070;8.436;2022-07-23T02:10:23;8.65;;;6.55;;
40729;SDS011;26418;50.070;8.436;2022-07-23T02:12:49;11.38;;;6.00;;
40729;SDS011;26418;50.070;8.436;2022-07-23T02:15:15;8.23;;;6.50;;
40729;SDS011;26418;50.070;8.436;2022-07-23T02:17:41;7.40;;;6.30;;
40729;SDS011;26418;50.070;8.436;2022-07-23T02:20:07;10.45;;;6.53;;
40729;SDS011;26418;50.070;8.436;2022-07-23T02:22:33;7.03;;;6.20;;
40729;SDS011;26418;50.070;8.436;2022-07-23T02:24:59;7.32;;;6.63;;
40729;SDS011;26418;50.070;8.436;2022-07-23T02:27:25;9.32;;;6.60;;
40729;SDS011;26418;50.070;8.436;2022-07-23T02:29:50;11.75;;;6.50;;
40729;SDS011;26418;50.070;8.436;2022-07-23T02:32:15;8.55;;;6.70;;
40729;SDS011;26418;50.070;8.436;2022-07-23T02:34:41;9.52;;;6.50;;
40729;SDS011;26418;50.070;8.436;2022-07-23T02:37:06;13.35;;;7.32;;
40729;SDS011;26418;50.070;8.436;2022-07-23T02:39:33;10.45;;;7.78;;
40729;SDS011;26418;50.070;8.436;2022-07-23T02:41:59;11.18;;;7.35;;
40729;SDS011;26418;50.070;8.436;2022-07-23T02:44:25;9.63;;;6.70;;
40729;SDS011;26418;50.070;8.436;2022-07-23T02:46:50;9.57;;;7.60;;
40729;SDS011;26418;50.070;8.436;2022-07-23T02:49:16;11.52;;;6.93;;
40729;SDS011;26418;50.070;8.436;2022-07-23T02:51:41;10.77;;;7.20;;
40729;SDS011;26418;50.070;8.436;2022-07-23T02:54:07;8.20;;;6.82;;
40729;SDS011;26418;50.070;8.436;2022-07-23T02:56:33;9.80;;;7.15;;
40729;SDS011;26418;50.070;8.436;2022-07-23T02:58:58;8.35;;;6.75;;
40729;SDS011;26418;50.070;8.436;2022-07-23T03:01:24;11.13;;;7.45;;
40729;SDS011;26418;50.070;8.436;2022-07-23T03:03:49;9.30;;;6.93;;
40729;SDS011;26418;50.070;8.436;2022-07-23T03:06:15;8.70;;;7.57;;
40729;SDS011;26418;50.070;8.436;2022-07-23T03:08:40;8.85;;;7.25;;
40729;SDS011;26418;50.070;8.436;2022-07-23T03:11:06;13.38;;;7.78;;
40729;SDS011;26418;50.070;8.436;2022-07-23T03:13:36;8.85;;;7.47;;
40729;SDS011;26418;50.070;8.436;2022-07-23T03:16:02;12.68;;;7.95;;
40729;SDS011;26418;50.070;8.436;2022-07-23T03:18:28;8.68;;;7.55;;
40729;SDS011;26418;50.070;8.436;2022-07-23T03:20:53;12.05;;;8.30;;
40729;SDS011;26418;50.070;8.436;2022-07-23T03:25:54;9.93;;;7.80;;
40729;SDS011;26418;50.070;8.436;2022-07-23T03:28:20;10.43;;;8.30;;
40729;SDS011;26418;50.070;8.436;2022-07-23T03:30:45;10.77;;;7.90;;
40729;SDS011;26418;50.070;8.436;2022-07-23T03:33:12;10.05;;;7.65;;
40729;SDS011;26418;50.070;8.436;2022-07-23T03:35:39;10.13;;;7.45;;
40729;SDS011;26418;50.070;8.436;2022-07-23T03:38:04;10.02;;;7.95;;
40729;SDS011;26418;50.070;8.436;2022-07-23T03:40:30;13.68;;;8.85;;
40729;SDS011;26418;50.070;8.436;2022-07-23T03:42:55;11.32;;;8.00;;
40729;SDS011;26418;50.070;8.436;2022-07-23T03:45:21;9.93;;;7.43;;
40729;SDS011;26418;50.070;8.436;2022-07-23T03:47:46;9.00;;;7.80;;
40729;SDS011;26418;50.070;8.436;2022-07-23T03:50:12;8.77;;;7.22;;
40729;SDS011;26418;50.070;8.436;2022-07-23T03:52:37;10.55;;;7.78;;
40729;SDS011;26418;50.070;8.436;2022-07-23T03:55:03;9.45;;;6.88;;
40729;SDS011;26418;50.070;8.436;2022-07-23T03:57:29;10.77;;;7.93;;
40729;SDS011;26418;50.070;8.436;2022-07-23T03:59:55;13.05;;;7.68;;
40729;SDS011;26418;50.070;8.436;2022-07-23T04:02:20;11.93;;;8.00;;
40729;SDS011;26418;50.070;8.436;2022-07-23T04:04:45;15.77;;;7.28;;
40729;SDS011;26418;50.070;8.436;2022-07-23T04:07:11;7.55;;;6.72;;
40729;SDS011;26418;50.070;8.436;2022-07-23T04:09:37;10.43;;;7.90;;
40729;SDS011;26418;50.070;8.436;2022-07-23T04:12:05;11.18;;;7.82;;
40729;SDS011;26418;50.070;8.436;2022-07-23T04:29:56;10.57;;;7.40;;
40729;SDS011;26418;50.070;8.436;2022-07-23T04:32:22;9.27;;;7.55;;
40729;SDS011;26418;50.070;8.436;2022-07-23T04:34:47;10.30;;;7.32;;
40729;SDS011;26418;50.070;8.436;2022-07-23T04:37:13;10.50;;;7.43;;
40729;SDS011;26418;50.070;8.436;2022-07-23T04:39:38;9.60;;;7.13;;
40729;SDS011;26418;50.070;8.436;2022-07-23T04:42:04;12.88;;;7.55;;
40729;SDS011;26418;50.070;8.436;2022-07-23T04:44:29;10.25;;;7.10;;
40729;SDS011;26418;50.070;8.436;2022-07-23T04:46:55;11.13;;;7.82;;
40729;SDS011;26418;50.070;8.436;2022-07-23T04:49:20;9.60;;;7.80;;
40729;SDS011;26418;50.070;8.436;2022-07-23T04:51:45;8.65;;;7.07;;
40729;SDS011;26418;50.070;8.436;2022-07-23T04:54:11;12.63;;;8.40;;
40729;SDS011;26418;50.070;8.436;2022-07-23T04:56:36;13.38;;;7.13;;
40729;SDS011;26418;50.070;8.436;2022-07-23T04:59:02;10.48;;;7.78;;
40729;SDS011;26418;50.070;8.436;2022-07-23T05:01:27;9.38;;;7.57;;
40729;SDS011;26418;50.070;8.436;2022-07-23T05:03:53;8.65;;;7.50;;
40729;SDS011;26418;50.070;8.436;2022-07-23T05:06:18;14.23;;;7.60;;
40729;SDS011;26418;50.070;8.436;2022-07-23T05:08:44;10.32;;;7.20;;
40729;SDS011;26418;50.070;8.436;2022-07-23T05:11:09;10.13;;;7.72;;
40729;SDS011;26418;50.070;8.436;2022-07-23T05:13:35;8.80;;;7.47;;
40729;SDS011;26418;50.070;8.436;2022-07-23T05:16:00;8.70;;;7.13;;
40729;SDS011;26418;50.070;8.436;2022-07-23T05:18:26;10.80;;;6.10;;
40729;SDS011;26418;50.070;8.436;2022-07-23T05:20:51;7.88;;;5.88;;
40729;SDS011;26418;50.070;8.436;2022-07-23T05:23:17;10.77;;;6.88;;
40729;SDS011;26418;50.070;8.436;2022-07-23T05:25:42;8.82;;;6.97;;
40729;SDS011;26418;50.070;8.436;2022-07-23T05:28:07;10.25;;;7.47;;
40729;SDS011;26418;50.070;8.436;2022-07-23T05:30:33;10.05;;;6.60;;
40729;SDS011;26418;50.070;8.436;2022-07-23T05:32:58;8.95;;;6.50;;
40729;SDS011;26418;50.070;8.436;2022-07-23T05:35:24;8.73;;;6.43;;
40729;SDS011;26418;50.070;8.436;2022-07-23T05:37:50;8.40;;;6.05;;
40729;SDS011;26418;50.070;8.436;2022-07-23T05:40:17;8.82;;;6.57;;
40729;SDS011;26418;50.070;8.436;2022-07-23T05:42:43;12.40;;;7.47;;
40729;SDS011;26418;50.070;8.436;2022-07-23T05:45:08;9.80;;;7.43;;
40729;SDS011;26418;50.070;8.436;2022-07-23T05:50:10;9.23;;;6.63;;
40729;SDS011;26418;50.070;8.436;2022-07-23T05:52:39;11.18;;;7.05;;
40729;SDS011;26418;50.070;8.436;2022-07-23T05:55:05;7.70;;;6.22;;
40729;SDS011;26418;50.070;8.436;2022-07-23T05:57:31;8.80;;;6.95;;
40729;SDS011;26418;50.070;8.436;2022-07-23T05:59:57;11.52;;;7.07;;
40729;SDS011;26418;50.070;8.436;2022-07-23T06:02:22;12.75;;;7.70;;
40729;SDS011;26418;50.070;8.436;2022-07-23T06:04:48;9.45;;;7.03;;
40729;SDS011;26418;50.070;8.436;2022-07-23T06:07:13;12.02;;;6.40;;
40729;SDS011;26418;50.070;8.436;2022-07-23T06:09:39;10.48;;;7.43;;
40729;SDS011;26418;50.070;8.436;2022-07-23T06:12:04;9.95;;;7.32;;
40729;SDS011;26418;50.070;8.436;2022-07-23T06:14:30;8.95;;;7.18;;
40729;SDS011;26418;50.070;8.436;2022-07-23T06:16:56;8.60;;;6.95;;
40729;SDS011;26418;50.070;8.436;2022-07-23T06:19:21;10.48;;;7.35;;
40729;SDS011;26418;50.070;8.436;2022-07-23T06:21:47;12.25;;;7.50;;
40729;SDS011;26418;50.070;8.436;2022-07-23T06:24:12;9.00;;;7.15;;
40729;SDS011;26418;50.070;8.436;2022-07-23T06:26:38;10.88;;;8.48;;
40729;SDS011;26418;50.070;8.436;2022-07-23T06:29:03;13.63;;;7.80;;
40729;SDS011;26418;50.070;8.436;2022-07-23T06:31:29;9.38;;;7.05;;
40729;SDS011;26418;50.070;8.436;2022-07-23T06:33:54;13.60;;;9.00;;
40729;SDS011;26418;50.070;8.436;2022-07-23T06:36:20;10.00;;;7.57;;
40729;SDS011;26418;50.070;8.436;2022-07-23T06:38:45;10.88;;;8.00;;
40729;SDS011;26418;50.070;8.436;2022-07-23T06:41:11;8.27;;;6.82;;
40729;SDS011;26418;50.070;8.436;2022-07-23T06:43:36;11.02;;;7.82;;
40729;SDS011;26418;50.070;8.436;2022-07-23T06:46:02;9.65;;;7.50;;
40729;SDS011;26418;50.070;8.436;2022-07-23T06:48:28;8.90;;;6.82;;
40729;SDS011;26418;50.070;8.436;2022-07-23T06:50:54;9.73;;;6.78;;
40729;SDS011;26418;50.070;8.436;2022-07-23T06:53:20;10.18;;;7.82;;
40729;SDS011;26418;50.070;8.436;2022-07-23T06:55:46;9.77;;;7.20;;
40729;SDS011;26418;50.070;8.436;2022-07-23T06:58:11;13.77;;;7.70;;
40729;SDS011;26418;50.070;8.436;2022-07-23T07:00:39;10.38;;;7.80;;
40729;SDS011;26418;50.070;8.436;2022-07-23T07:03:05;9.65;;;7.65;;
40729;SDS011;26418;50.070;8.436;2022-07-23T07:05:30;9.88;;;6.82;;
40729;SDS011;26418;50.070;8.436;2022-07-23T07:07:56;11.10;;;7.10;;
40729;SDS011;26418;50.070;8.436;2022-07-23T07:10:21;9.18;;;7.05;;
40729;SDS011;26418;50.070;8.436;2022-07-23T07:12:47;12.07;;;8.60;;
40729;SDS011;26418;50.070;8.436;2022-07-23T07:15:12;8.45;;;7.03;;
40729;SDS011;26418;50.070;8.436;2022-07-23T07:17:38;12.25;;;8.68;;
40729;SDS011;26418;50.070;8.436;2022-07-23T07:20:04;9.50;;;8.07;;
40729;SDS011;26418;50.070;8.436;2022-07-23T07:22:30;8.50;;;6.50;;
40729;SDS011;26418;50.070;8.436;2022-07-23T07:24:56;15.32;;;8.48;;
40729;SDS011;26418;50.070;8.436;2022-07-23T07:27:21;13.93;;;8.90;;
40729;SDS011;26418;50.070;8.436;2022-07-23T07:29:47;12.18;;;7.40;;
40729;SDS011;26418;50.070;8.436;2022-07-23T07:32:13;17.65;;;9.05;;
40729;SDS011;26418;50.070;8.436;2022-07-23T07:34:38;13.48;;;9.15;;
40729;SDS011;26418;50.070;8.436;2022-07-23T07:37:04;10.90;;;7.82;;
40729;SDS011;26418;50.070;8.436;2022-07-23T07:39:29;13.10;;;8.93;;
40729;SDS011;26418;50.070;8.436;2022-07-23T07:41:55;14.65;;;9.68;;
40729;SDS011;26418;50.070;8.436;2022-07-23T07:44:20;11.93;;;7.80;;
40729;SDS011;26418;50.070;8.436;2022-07-23T07:46:46;8.95;;;6.90;;
40729;SDS011;26418;50.070;8.436;2022-07-23T07:49:11;10.27;;;7.35;;
40729;SDS011;26418;50.070;8.436;2022-07-23T07:51:37;9.18;;;6.75;;
40729;SDS011;26418;50.070;8.436;2022-07-23T07:54:02;9.32;;;7.32;;
40729;SDS011;26418;50.070;8.436;2022-07-23T07:56:28;10.85;;;8.63;;
40729;SDS011;26418;50.070;8.436;2022-07-23T07:58:53;16.23;;;8.40;;
40729;SDS011;26418;50.070;8.436;2022-07-23T08:01:19;10.98;;;8.77;;
40729;SDS011;26418;50.070;8.436;2022-07-23T08:03:45;13.50;;;8.57;;
40729;SDS011;26418;50.070;8.436;2022-07-23T08:06:10;9.95;;;8.40;;
40729;SDS011;26418;50.070;8.436;2022-07-23T08:08:36;7.93;;;7.13;;
40729;SDS011;26418;50.070;8.436;2022-07-23T08:11:01;11.48;;;7.93;;
40729;SDS011;26418;50.070;8.436;2022-07-23T08:13:27;11.60;;;8.77;;
40729;SDS011;26418;50.070;8.436;2022-07-23T08:15:53;10.25;;;7.80;;
40729;SDS011;26418;50.070;8.436;2022-07-23T08:18:18;10.35;;;7.68;;
40729;SDS011;26418;50.070;8.436;2022-07-23T08:20:44;9.20;;;7.25;;
40729;SDS011;26418;50.070;8.436;2022-07-23T08:23:10;10.40;;;7.65;;
40729;SDS011;26418;50.070;8.436;2022-07-23T08:25:45;10.25;;;7.93;;
40729;SDS011;26418;50.070;8.436;2022-07-23T08:28:12;8.73;;;7.43;;
40729;SDS011;26418;50.070;8.436;2022-07-23T08:30:39;8.48;;;7.63;;
40729;SDS011;26418;50.070;8.436;2022-07-23T08:33:10;8.25;;;6.93;;
40729;SDS011;26418;50.070;8.436;2022-07-23T08:35:41;8.00;;;6.82;;
40729;SDS011;26418;50.070;8.436;2022-07-23T08:38:09;9.55;;;7.47;;
40729;SDS011;26418;50.070;8.436;2022-07-23T08:40:50;11.07;;;7.25;;
40729;SDS011;26418;50.070;8.436;2022-07-23T08:43:18;12.00;;;6.95;;
40729;SDS011;26418;50.070;8.436;2022-07-23T08:45:46;8.95;;;7.43;;
40729;SDS011;26418;50.070;8.436;2022-07-23T08:48:14;10.30;;;6.80;;
40729;SDS011;26418;50.070;8.436;2022-07-23T08:50:46;9.02;;;6.80;;
40729;SDS011;26418;50.070;8.436;2022-07-23T08:53:13;11.63;;;6.85;;
40729;SDS011;26418;50.070;8.436;2022-07-23T08:55:43;8.98;;;6.68;;
40729;SDS011;26418;50.070;8.436;2022-07-23T08:58:16;7.93;;;6.40;;
40729;SDS011;26418;50.070;8.436;2022-07-23T09:00:43;7.95;;;6.72;;
40729;SDS011;26418;50.070;8.436;2022-07-23T09:03:17;9.75;;;6.90;;
40729;SDS011;26418;50.070;8.436;2022-07-23T09:05:43;8.88;;;7.35;;
40729;SDS011;26418;50.070;8.436;2022-07-23T09:10:42;8.20;;;6.30;;
40729;SDS011;26418;50.070;8.436;2022-07-23T09:13:26;10.50;;;6.40;;
40729;SDS011;26418;50.070;8.436;2022-07-23T09:15:57;11.85;;;7.10;;
40729;SDS011;26418;50.070;8.436;2022-07-23T09:18:32;7.97;;;6.88;;
40729;SDS011;26418;50.070;8.436;2022-07-23T09:23:38;9.15;;;6.32;;
40729;SDS011;26418;50.070;8.436;2022-07-23T09:26:16;9.82;;;7.05;;
40729;SDS011;26418;50.070;8.436;2022-07-23T09:28:50;9.07;;;6.40;;
40729;SDS011;26418;50.070;8.436;2022-07-23T09:31:18;9.35;;;5.82;;
40729;SDS011;26418;50.070;8.436;2022-07-23T09:33:43;7.40;;;6.07;;
40729;SDS011;26418;50.070;8.436;2022-07-23T09:36:09;8.57;;;6.18;;
40729;SDS011;26418;50.070;8.436;2022-07-23T09:38:35;7.60;;;5.68;;
40729;SDS011;26418;50.070;8.436;2022-07-23T09:41:36;8.10;;;5.72;;
40729;SDS011;26418;50.070;8.436;2022-07-23T09:44:07;13.18;;;6.50;;
40729;SDS011;26418;50.070;8.436;2022-07-23T09:46:34;6.30;;;5.57;;
40729;SDS011;26418;50.070;8.436;2022-07-23T09:49:00;6.85;;;5.78;;
40729;SDS011;26418;50.070;8.436;2022-07-23T09:51:43;9.27;;;6.50;;
40729;SDS011;26418;50.070;8.436;2022-07-23T09:54:44;7.10;;;6.07;;
40729;SDS011;26418;50.070;8.436;2022-07-23T09:57:05;6.75;;;6.05;;
40729;SDS011;26418;50.070;8.436;2022-07-23T09:59:35;7.03;;;5.18;;
40729;SDS011;26418;50.070;8.436;2022-07-23T10:02:02;9.55;;;6.40;;
40729;SDS011;26418;50.070;8.436;2022-07-23T10:04:30;7.07;;;5.22;;
40729;SDS011;26418;50.070;8.436;2022-07-23T10:06:58;7.30;;;5.47;;
40729;SDS011;26418;50.070;8.436;2022-07-23T10:09:33;6.57;;;4.93;;
40729;SDS011;26418;50.070;8.436;2022-07-23T10:12:01;8.73;;;6.00;;
40729;SDS011;26418;50.070;8.436;2022-07-23T10:14:46;7.95;;;5.88;;
40729;SDS011;26418;50.070;8.436;2022-07-23T10:17:13;7.30;;;5.45;;
40729;SDS011;26418;50.070;8.436;2022-07-23T10:19:39;7.10;;;6.03;;
40729;SDS011;26418;50.070;8.436;2022-07-23T10:22:08;9.27;;;5.22;;
40729;SDS011;26418;50.070;8.436;2022-07-23T10:29:47;6.95;;;5.45;;
40729;SDS011;26418;50.070;8.436;2022-07-23T10:38:13;5.57;;;5.03;;
40729;SDS011;26418;50.070;8.436;2022-07-23T10:43:22;7.95;;;5.65;;
40729;SDS011;26418;50.070;8.436;2022-07-23T10:45:48;7.13;;;5.88;;
40729;SDS011;26418;50.070;8.436;2022-07-23T10:51:13;10.18;;;5.97;;
40729;SDS011;26418;50.070;8.436;2022-07-23T10:53:53;8.18;;;5.75;;
40729;SDS011;26418;50.070;8.436;2022-07-23T10:59:24;5.65;;;5.05;;
40729;SDS011;26418;50.070;8.436;2022-07-23T11:01:49;7.03;;;4.68;;
40729;SDS011;26418;50.070;8.436;2022-07-23T11:04:15;8.85;;;5.53;;
40729;SDS011;26418;50.070;8.436;2022-07-23T11:09:28;5.90;;;5.22;;
40729;SDS011;26418;50.070;8.436;2022-07-23T11:17:22;5.63;;;5.13;;
40729;SDS011;26418;50.070;8.436;2022-07-23T11:22:37;7.45;;;5.15;;
40729;SDS011;26418;50.070;8.436;2022-07-23T11:25:09;7.68;;;6.05;;
40729;SDS011;26418;50.070;8.436;2022-07-23T11:27:39;6.80;;;4.60;;
40729;SDS011;26418;50.070;8.436;2022-07-23T11:35:35;7.40;;;5.70;;
40729;SDS011;26418;50.070;8.436;2022-07-23T11:38:23;7.47;;;5.05;;
40729;SDS011;26418;50.070;8.436;2022-07-23T11:43:17;6.82;;;6.03;;
40729;SDS011;26418;50.070;8.436;2022-07-23T11:45:45;9.50;;;6.35;;
40729;SDS011;26418;50.070;8.436;2022-07-23T11:50:43;6.75;;;5.97;;
40729;SDS011;26418;50.070;8.436;2022-07-23T11:53:08;7.47;;;5.60;;
40729;SDS011;26418;50.070;8.436;2022-07-23T11:55:34;7.22;;;5.72;;
40729;SDS011;26418;50.070;8.436;2022-07-23T11:57:59;8.10;;;5.63;;
40729;SDS011;26418;50.070;8.436;2022-07-23T12:00:26;9.30;;;5.97;;
40729;SDS011;26418;50.070;8.436;2022-07-23T12:03:04;7.47;;;5.97;;
40729;SDS011;26418;50.070;8.436;2022-07-23T12:05:32;6.32;;;5.60;;
40729;SDS011;26418;50.070;8.436;2022-07-23T12:08:03;9.65;;;6.78;;
40729;SDS011;26418;50.070;8.436;2022-07-23T12:13:01;6.78;;;5.78;;
40729;SDS011;26418;50.070;8.436;2022-07-23T12:15:32;7.35;;;5.97;;
40729;SDS011;26418;50.070;8.436;2022-07-23T12:18:20;6.60;;;5.38;;
40729;SDS011;26418;50.070;8.436;2022-07-23T12:20:48;8.70;;;5.95;;
40729;SDS011;26418;50.070;8.436;2022-07-23T12:23:16;6.57;;;5.72;;
40729;SDS011;26418;50.070;8.436;2022-07-23T12:25:43;9.48;;;6.65;;
40729;SDS011;26418;50.070;8.436;2022-07-23T12:31:16;7.60;;;6.63;;
40729;SDS011;26418;50.070;8.436;2022-07-23T12:33:51;6.78;;;6.00;;
40729;SDS011;26418;50.070;8.436;2022-07-23T12:36:16;11.38;;;6.15;;
40729;SDS011;26418;50.070;8.436;2022-07-23T12:38:43;8.43;;;6.40;;
40729;SDS011;26418;50.070;8.436;2022-07-23T12:41:14;8.80;;;5.78;;
40729;SDS011;26418;50.070;8.436;2022-07-23T12:43:41;7.50;;;6.43;;
40729;SDS011;26418;50.070;8.436;2022-07-23T12:51:17;7.78;;;6.97;;
40729;SDS011;26418;50.070;8.436;2022-07-23T12:53:50;7.18;;;5.68;;
40729;SDS011;26418;50.070;8.436;2022-07-23T12:56:28;8.02;;;6.80;;
40729;SDS011;26418;50.070;8.436;2022-07-23T13:04:21;7.85;;;6.03;;
40729;SDS011;26418;50.070;8.436;2022-07-23T13:06:49;6.45;;;5.82;;
40729;SDS011;26418;50.070;8.436;2022-07-23T13:09:38;7.05;;;5.30;;
40729;SDS011;26418;50.070;8.436;2022-07-23T13:12:03;7.70;;;6.20;;
40729;SDS011;26418;50.070;8.436;2022-07-23T13:14:29;11.57;;;6.05;;
40729;SDS011;26418;50.070;8.436;2022-07-23T13:16:54;9.23;;;5.47;;
40729;SDS011;26418;50.070;8.436;2022-07-23T13:19:20;8.93;;;6.07;;
40729;SDS011;26418;50.070;8.436;2022-07-23T13:21:49;9.68;;;5.90;;
40729;SDS011;26418;50.070;8.436;2022-07-23T13:24:15;6.43;;;5.78;;
40729;SDS011;26418;50.070;8.436;2022-07-23T13:26:41;7.28;;;6.55;;
40729;SDS011;26418;50.070;8.436;2022-07-23T13:29:07;10.15;;;6.90;;
40729;SDS011;26418;50.070;8.436;2022-07-23T13:31:37;7.15;;;5.78;;
40729;SDS011;26418;50.070;8.436;2022-07-23T13:34:03;9.40;;;6.05;;
40729;SDS011;26418;50.070;8.436;2022-07-23T13:36:28;6.65;;;6.03;;
40729;SDS011;26418;50.070;8.436;2022-07-23T13:38:54;7.70;;;6.75;;
40729;SDS011;26418;50.070;8.436;2022-07-23T13:41:20;9.60;;;6.30;;
40729;SDS011;26418;50.070;8.436;2022-07-23T13:43:45;8.07;;;7.07;;
40729;SDS011;26418;50.070;8.436;2022-07-23T13:46:11;7.07;;;6.32;;
40729;SDS011;26418;50.070;8.436;2022-07-23T13:48:37;8.80;;;6.53;;
40729;SDS011;26418;50.070;8.436;2022-07-23T13:51:02;9.73;;;6.38;;
40729;SDS011;26418;50.070;8.436;2022-07-23T13:53:28;9.48;;;6.18;;
40729;SDS011;26418;50.070;8.436;2022-07-23T13:55:54;11.10;;;6.80;;
40729;SDS011;26418;50.070;8.436;2022-07-23T13:58:19;7.35;;;6.55;;
40729;SDS011;26418;50.070;8.436;2022-07-23T14:00:46;8.32;;;6.72;;
40729;SDS011;26418;50.070;8.436;2022-07-23T14:03:14;9.93;;;7.05;;
40729;SDS011;26418;50.070;8.436;2022-07-23T14:05:40;8.07;;;6.60;;
40729;SDS011;26418;50.070;8.436;2022-07-23T14:08:07;8.70;;;6.80;;
40729;SDS011;26418;50.070;8.436;2022-07-23T14:10:33;10.57;;;6.30;;
40729;SDS011;26418;50.070;8.436;2022-07-23T14:12:58;10.93;;;6.60;;
40729;SDS011;26418;50.070;8.436;2022-07-23T14:15:25;7.57;;;6.18;;
40729;SDS011;26418;50.070;8.436;2022-07-23T14:17:53;7.03;;;6.30;;
40729;SDS011;26418;50.070;8.436;2022-07-23T14:20:19;7.82;;;6.05;;
40729;SDS011;26418;50.070;8.436;2022-07-23T14:22:45;8.38;;;6.28;;
40729;SDS011;26418;50.070;8.436;2022-07-23T14:25:10;10.27;;;6.68;;
40729;SDS011;26418;50.070;8.436;2022-07-23T14:27:37;6.78;;;6.03;;
40729;SDS011;26418;50.070;8.436;2022-07-23T14:30:04;11.63;;;6.78;;
40729;SDS011;26418;50.070;8.436;2022-07-23T14:32:30;9.52;;;6.50;;
40729;SDS011;26418;50.070;8.436;2022-07-23T14:34:56;10.18;;;6.30;;
40729;SDS011;26418;50.070;8.436;2022-07-23T14:37:22;7.07;;;6.38;;
40729;SDS011;26418;50.070;8.436;2022-07-23T14:39:48;7.13;;;5.80;;
40729;SDS011;26418;50.070;8.436;2022-07-23T14:42:14;7.55;;;5.82;;
40729;SDS011;26418;50.070;8.436;2022-07-23T14:44:48;9.60;;;6.13;;
40729;SDS011;26418;50.070;8.436;2022-07-23T14:47:13;12.93;;;6.40;;
40729;SDS011;26418;50.070;8.436;2022-07-23T14:49:38;8.63;;;5.78;;
40729;SDS011;26418;50.070;8.436;2022-07-23T14:52:08;7.05;;;6.30;;
40729;SDS011;26418;50.070;8.436;2022-07-23T14:54:34;9.85;;;6.28;;
40729;SDS011;26418;50.070;8.436;2022-07-23T14:57:00;7.40;;;6.22;;
40729;SDS011;26418;50.070;8.436;2022-07-23T14:59:28;8.38;;;5.50;;
40729;SDS011;26418;50.070;8.436;2022-07-23T15:01:55;8.27;;;6.50;;
40729;SDS011;26418;50.070;8.436;2022-07-23T15:04:21;6.65;;;6.00;;
40729;SDS011;26418;50.070;8.436;2022-07-23T15:06:47;7.55;;;5.68;;
40729;SDS011;26418;50.070;8.436;2022-07-23T15:15:04;5.53;;;4.90;;
40729;SDS011;26418;50.070;8.436;2022-07-23T15:17:32;6.05;;;4.95;;
40729;SDS011;26418;50.070;8.436;2022-07-23T15:19:58;5.80;;;4.95;;
40729;SDS011;26418;50.070;8.436;2022-07-23T15:22:23;8.50;;;5.40;;
40729;SDS011;26418;50.070;8.436;2022-07-23T15:24:49;8.38;;;5.38;;
40729;SDS011;26418;50.070;8.436;2022-07-23T15:27:23;6.50;;;4.53;;
40729;SDS011;26418;50.070;8.436;2022-07-23T15:29:48;6.72;;;4.75;;
40729;SDS011;26418;50.070;8.436;2022-07-23T15:32:14;6.18;;;5.10;;
40729;SDS011;26418;50.070;8.436;2022-07-23T15:34:39;7.22;;;5.15;;
40729;SDS011;26418;50.070;8.436;2022-07-23T15:37:05;10.98;;;5.60;;
40729;SDS011;26418;50.070;8.436;2022-07-23T15:42:37;6.70;;;5.40;;
40729;SDS011;26418;50.070;8.436;2022-07-23T15:45:03;7.65;;;4.82;;
40729;SDS011;26418;50.070;8.436;2022-07-23T15:47:29;7.18;;;4.97;;
40729;SDS011;26418;50.070;8.436;2022-07-23T15:49:54;6.47;;;4.80;;
40729;SDS011;26418;50.070;8.436;2022-07-23T15:52:20;7.85;;;4.68;;
40729;SDS011;26418;50.070;8.436;2022-07-23T15:54:52;8.57;;;5.22;;
40729;SDS011;26418;50.070;8.436;2022-07-23T15:57:18;5.25;;;4.32;;
40729;SDS011;26418;50.070;8.436;2022-07-23T15:59:43;7.22;;;4.43;;
40729;SDS011;26418;50.070;8.436;2022-07-23T16:02:09;8.75;;;4.45;;
40729;SDS011;26418;50.070;8.436;2022-07-23T16:04:34;6.20;;;4.63;;
40729;SDS011;26418;50.070;8.436;2022-07-23T16:07:01;10.50;;;5.53;;
40729;SDS011;26418;50.070;8.436;2022-07-23T16:09:26;9.35;;;4.90;;
40729;SDS011;26418;50.070;8.436;2022-07-23T16:11:52;6.47;;;4.70;;
40729;SDS011;26418;50.070;8.436;2022-07-23T16:14:21;6.20;;;4.90;;